Main page
METAR-TAF:

METAR-TAF

Airports :

Roskilde Airport

Roskilde, Denmark

latitude: 55-35N, longitude: 012-08E, elevation: 44 m

Current weather observation

The report was made 15 minutes ago, at 17:50 UTC
Wind 7 kt from the West
Temperature 17°C
Humidity 63%
Pressure 1014 hPa
Visibility 10 km or more

METAR: EKRK 221750Z AUTO 26007KT 9999 NCD 17/10 Q1014

Time: 20:05 (18:05 UTC)

Forecast

The report was made 40 minutes ago, at 17:25 UTC
Forecast valid from 22 at 18 UTC to 23 at 03 UTC
Wind 6 kt from the West
Visibility 10 km or more
Few clouds at a height of 3000 ft

TAF: EKRK 221725Z 2218/2303 27006KT 9999 FEW030

Weather observations and forecasts of more than 4000 airports (METAR and TAF reports).

The available stations are represented by yellow and red dots on the map.

Hover mouse over dot to see the name of the station.

Then click to see weather observations and forecasts.

To change the map : click on the green buttons with a black cross to zoom in, on the green button with a dash to zoom out, or on the green arrows for adjacent maps.


METAR-TAF: